Time;durP1;ratioP1;P1;durP2;ratioP2;P2;SDS_P1;SDS_P2;PMS_P1;PMS_P2;Temp;Humidity;BMP_temperature;BMP_pressure;BME280_temperature;BME280_humidity;BME280_pressure;Samples;Min_cycle;Max_cycle;Signal;HPM_P1;HPM_P2
2021/07/21 00:00:09;;;;;;;7.80;7.10;;;20.10;94.20;;;;;;5099043;28;20457;-62
2021/07/21 00:02:37;;;;;;;7.10;6.40;;;20.20;94.30;;;;;;5112740;27;20525;-61
2021/07/21 00:05:06;;;;;;;6.73;6.03;;;20.10;94.20;;;;;;5112900;27;20453;-61
2021/07/21 00:07:33;;;;;;;6.83;6.07;;;20.10;94.40;;;;;;5110539;27;20943;-61
2021/07/21 00:10:00;;;;;;;7.07;6.47;;;20.10;94.40;;;;;;5112841;28;20868;-62
2021/07/21 00:15:12;;;;;;;7.27;6.57;;;20.10;94.60;;;;;;5114535;28;20452;-62
2021/07/21 00:17:41;;;;;;;7.20;6.60;;;20.10;95.00;;;;;;5106056;27;20498;-61
2021/07/21 00:20:09;;;;;;;7.50;6.70;;;20.00;94.70;;;;;;5106580;28;20461;-61
2021/07/21 00:22:38;;;;;;;7.83;7.07;;;20.00;94.80;;;;;;5115079;27;20532;-62
2021/07/21 00:25:06;;;;;;;6.40;5.80;;;20.00;94.80;;;;;;5108214;27;21014;-62
2021/07/21 00:27:34;;;;;;;6.90;6.03;;;20.00;94.90;;;;;;5111162;28;20473;-61
2021/07/21 00:30:00;;;;;;;8.90;8.10;;;20.00;95.00;;;;;;5114307;27;20476;-62
2021/07/21 00:32:27;;;;;;;8.20;7.50;;;19.90;95.00;;;;;;5108202;27;21227;-62
2021/07/21 00:34:56;;;;;;;8.33;7.53;;;20.00;95.10;;;;;;5114214;27;20811;-62
2021/07/21 00:37:23;;;;;;;7.30;6.70;;;19.90;95.00;;;;;;5105983;28;20494;-62
2021/07/21 00:39:49;;;;;;;7.40;6.70;;;19.90;95.10;;;;;;5102287;27;20530;-62
2021/07/21 00:42:16;;;;;;;8.23;6.90;;;20.00;95.20;;;;;;5107853;28;20533;-61
2021/07/21 00:44:44;;;;;;;7.63;7.00;;;19.90;95.20;;;;;;5112220;28;21023;-62
2021/07/21 00:47:11;;;;;;;8.50;7.67;;;19.90;95.40;;;;;;5100374;27;20875;-61
2021/07/21 00:49:38;;;;;;;8.10;7.00;;;19.90;95.50;;;;;;5108771;28;20942;-61
2021/07/21 00:52:08;;;;;;;8.03;7.17;;;19.90;95.60;;;;;;5107840;27;20533;-61
2021/07/21 00:54:35;;;;;;;11.87;8.53;;;19.80;95.60;;;;;;5107175;28;20465;-61
2021/07/21 00:57:04;;;;;;;9.07;7.67;;;19.80;95.70;;;;;;5109751;28;20544;-62
2021/07/21 00:59:34;;;;;;;7.90;7.13;;;19.80;95.80;;;;;;5102616;28;20851;-62
2021/07/21 01:02:01;;;;;;;8.60;7.80;;;19.80;96.30;;;;;;5112722;27;20468;-61
2021/07/21 01:04:29;;;;;;;12.20;9.63;;;19.80;96.00;;;;;;5106095;27;20527;-61
2021/07/21 01:06:57;;;;;;;10.23;8.40;;;19.80;96.10;;;;;;5110545;28;20465;-61
2021/07/21 01:09:25;;;;;;;10.60;8.77;;;19.80;96.10;;;;;;5113788;27;20472;-62
2021/07/21 01:11:59;;;;;;;9.43;7.73;;;19.70;96.10;;;;;;5106219;28;20480;-61
2021/07/21 01:14:31;;;;;;;12.10;9.30;;;19.70;96.20;;;;;;5110297;28;20468;-61
2021/07/21 01:17:02;;;;;;;9.27;8.37;;;19.70;96.30;;;;;;5108724;27;20476;-62
2021/07/21 01:19:58;;;;;;;8.80;7.90;;;19.70;96.40;;;;;;5111080;27;20805;-61
2021/07/21 01:22:27;;;;;;;8.43;7.67;;;19.70;96.50;;;;;;5113412;28;20921;-61
2021/07/21 01:25:07;;;;;;;9.60;7.40;;;19.60;96.60;;;;;;5093501;28;20464;-61
2021/07/21 01:27:37;;;;;;;10.80;8.20;;;19.60;96.70;;;;;;5099789;28;20581;-61
2021/07/21 01:30:08;;;;;;;8.57;7.77;;;19.50;96.80;;;;;;5109548;28;20475;-61
2021/07/21 01:32:36;;;;;;;10.37;7.47;;;19.50;96.90;;;;;;5112219;27;20552;-61
2021/07/21 01:35:08;;;;;;;9.57;7.50;;;19.50;97.10;;;;;;5113697;27;20513;-61
2021/07/21 01:37:39;;;;;;;9.33;8.37;;;19.50;97.10;;;;;;5099747;28;20452;-62
2021/07/21 01:40:13;;;;;;;11.03;9.43;;;19.40;97.20;;;;;;5109162;28;21000;-62
2021/07/21 01:42:42;;;;;;;8.30;7.60;;;19.40;97.40;;;;;;5104971;28;21569;-62
2021/07/21 01:45:10;;;;;;;9.60;7.87;;;19.40;97.50;;;;;;5108999;28;20497;-62
2021/07/21 01:47:38;;;;;;;9.30;8.23;;;19.40;97.50;;;;;;5112950;28;20518;-61
2021/07/21 01:50:07;;;;;;;9.20;7.53;;;19.40;97.60;;;;;;5103792;28;20465;-62
2021/07/21 01:52:34;;;;;;;11.63;8.70;;;19.40;97.70;;;;;;5102907;28;20472;-61
2021/07/21 01:55:06;;;;;;;9.50;7.90;;;19.40;97.80;;;;;;5106320;27;20474;-61
2021/07/21 01:57:33;;;;;;;10.70;9.60;;;19.40;97.90;;;;;;5109369;28;20492;-61
2021/07/21 02:00:07;;;;;;;9.27;8.20;;;19.40;97.90;;;;;;5099403;28;20859;-62
2021/07/21 02:02:35;;;;;;;10.13;9.07;;;19.30;98.00;;;;;;5110103;27;20548;-61
2021/07/21 02:05:03;;;;;;;9.00;8.20;;;19.30;98.00;;;;;;5104828;28;20502;-61
2021/07/21 02:07:31;;;;;;;9.47;8.53;;;19.30;98.10;;;;;;5109043;28;20465;-61
2021/07/21 02:09:58;;;;;;;9.97;8.90;;;19.30;98.20;;;;;;5112077;27;20529;-61
2021/07/21 02:12:25;;;;;;;8.20;7.40;;;19.30;98.30;;;;;;5105228;28;20686;-62
2021/07/21 02:14:52;;;;;;;9.40;8.50;;;19.30;98.40;;;;;;5100671;28;20468;-61
2021/07/21 02:17:21;;;;;;;9.20;8.30;;;19.20;98.40;;;;;;5104749;28;20472;-61
2021/07/21 02:19:49;;;;;;;9.13;8.33;;;19.20;98.50;;;;;;5109624;28;20537;-61
2021/07/21 02:22:18;;;;;;;10.00;7.77;;;19.20;98.60;;;;;;5106870;28;20552;-61
2021/07/21 02:24:46;;;;;;;11.57;9.10;;;19.20;98.70;;;;;;5108057;28;20791;-61
2021/07/21 02:27:13;;;;;;;11.17;10.10;;;19.20;98.70;;;;;;5093025;28;20978;-61
2021/07/21 02:29:41;;;;;;;9.00;8.27;;;19.20;98.80;;;;;;5105346;28;20545;-62
2021/07/21 02:32:13;;;;;;;9.47;8.57;;;19.20;98.90;;;;;;5111694;28;20810;-62
2021/07/21 02:34:44;;;;;;;9.13;8.30;;;19.20;98.80;;;;;;5098504;28;20476;-61
2021/07/21 02:37:15;;;;;;;10.30;8.70;;;19.20;98.90;;;;;;5108131;28;20558;-61
2021/07/21 02:39:44;;;;;;;10.70;8.80;;;19.20;99.00;;;;;;5096562;28;20534;-61
2021/07/21 02:42:11;;;;;;;10.10;9.20;;;19.20;99.00;;;;;;5106688;28;20864;-61
2021/07/21 02:44:38;;;;;;;9.60;7.70;;;19.20;99.10;;;;;;5109380;28;20460;-61
2021/07/21 02:47:05;;;;;;;10.17;7.77;;;19.10;99.10;;;;;;5101252;28;20543;-61
2021/07/21 02:49:32;;;;;;;9.63;8.70;;;19.10;99.10;;;;;;5111206;28;20954;-61
2021/07/21 02:52:08;;;;;;;10.00;8.57;;;19.20;99.30;;;;;;5111135;28;20525;-61
2021/07/21 02:54:41;;;;;;;10.57;8.33;;;19.20;99.20;;;;;;5105566;28;20704;-61
2021/07/21 02:57:13;;;;;;;9.67;8.77;;;19.10;99.30;;;;;;5098837;28;20548;-62
2021/07/21 02:59:45;;;;;;;9.53;8.53;;;19.10;99.40;;;;;;5106166;28;20482;-62
2021/07/21 03:02:15;;;;;;;9.07;8.17;;;19.10;99.40;;;;;;5109168;28;20520;-62
2021/07/21 03:04:42;;;;;;;9.00;8.10;;;19.00;99.50;;;;;;5112124;28;20657;-61
2021/07/21 03:07:12;;;;;;;10.60;7.63;;;19.00;99.60;;;;;;5108134;28;21107;-61
2021/07/21 03:09:40;;;;;;;9.77;8.77;;;19.00;99.70;;;;;;5111832;28;20472;-61
2021/07/21 03:12:12;;;;;;;9.37;8.40;;;19.00;99.70;;;;;;5110059;27;20473;-62
2021/07/21 03:14:41;;;;;;;9.07;8.17;;;19.10;99.80;;;;;;5101864;28;20537;-61
2021/07/21 03:17:13;;;;;;;8.83;7.43;;;19.00;99.80;;;;;;5105355;27;20467;-61
2021/07/21 03:19:43;;;;;;;12.23;8.33;;;19.00;99.90;;;;;;5106909;28;20471;-62
2021/07/21 03:22:13;;;;;;;9.27;8.40;;;19.10;99.90;;;;;;5108521;28;20961;-61
2021/07/21 03:24:43;;;;;;;11.50;9.90;;;19.10;99.90;;;;;;5112644;27;21024;-61
2021/07/21 03:27:11;;;;;;;10.47;9.20;;;19.10;99.90;;;;;;5115090;27;20461;-61
2021/07/21 03:29:39;;;;;;;9.47;8.50;;;19.10;99.90;;;;;;5113352;27;20799;-62
2021/07/21 03:32:07;;;;;;;10.07;9.07;;;19.10;99.90;;;;;;5106607;28;20465;-62
2021/07/21 03:34:36;;;;;;;10.23;9.23;;;19.10;99.90;;;;;;5111771;28;20469;-62
2021/07/21 03:37:03;;;;;;;10.60;9.50;;;19.10;99.90;;;;;;5106520;28;20450;-62
2021/07/21 03:39:33;;;;;;;8.83;7.93;;;19.10;99.90;;;;;;5107756;28;20552;-62
2021/07/21 03:42:00;;;;;;;12.70;10.40;;;19.10;99.90;;;;;;5104191;27;20539;-62
2021/07/21 03:44:28;;;;;;;10.50;9.47;;;19.10;99.90;;;;;;5108573;28;20526;-61
2021/07/21 03:46:55;;;;;;;9.57;8.60;;;19.10;99.90;;;;;;5113922;27;20464;-62
2021/07/21 03:49:22;;;;;;;11.03;8.97;;;19.10;99.90;;;;;;5114486;27;20531;-62
2021/07/21 03:51:49;;;;;;;9.50;7.63;;;19.10;99.90;;;;;;5113552;27;20860;-62
2021/07/21 03:54:17;;;;;;;8.87;7.97;;;19.10;99.90;;;;;;5114176;27;20474;-62
2021/07/21 03:56:47;;;;;;;9.83;8.80;;;19.10;99.90;;;;;;5115344;27;20525;-62
2021/07/21 03:59:19;;;;;;;11.43;8.10;;;19.10;99.90;;;;;;5115865;27;20472;-63
2021/07/21 04:01:47;;;;;;;9.90;9.00;;;19.20;99.90;;;;;;5114717;27;20508;-60
2021/07/21 04:04:16;;;;;;;10.50;9.43;;;19.20;99.90;;;;;;5113933;27;20471;-60
2021/07/21 04:06:46;;;;;;;9.30;8.50;;;19.20;99.90;;;;;;5113125;27;20470;-60
2021/07/21 04:09:17;;;;;;;10.17;8.93;;;19.20;99.90;;;;;;5113577;27;20476;-61
2021/07/21 04:11:46;;;;;;;9.40;8.47;;;19.20;99.90;;;;;;5113428;27;20520;-60
2021/07/21 04:14:15;;;;;;;11.17;9.20;;;19.20;99.90;;;;;;5113741;27;20467;-61
2021/07/21 04:16:42;;;;;;;9.10;7.90;;;19.20;99.90;;;;;;5114504;27;20973;-61
2021/07/21 04:19:11;;;;;;;8.77;7.80;;;19.20;99.90;;;;;;5115371;27;20471;-61
2021/07/21 04:21:41;;;;;;;8.23;7.30;;;19.20;99.90;;;;;;5114852;27;20484;-61
2021/07/21 04:24:10;;;;;;;9.93;9.00;;;19.30;99.90;;;;;;5115306;27;20502;-61
2021/07/21 04:26:38;;;;;;;9.00;8.10;;;19.30;99.90;;;;;;5114872;27;20472;-61
2021/07/21 04:29:06;;;;;;;9.77;8.87;;;19.30;99.90;;;;;;5115235;27;20529;-61
2021/07/21 04:31:36;;;;;;;9.77;8.87;;;19.30;99.90;;;;;;5114892;27;20798;-62
2021/07/21 04:34:04;;;;;;;9.23;8.37;;;19.30;99.90;;;;;;5114231;27;20456;-61
2021/07/21 04:36:32;;;;;;;8.07;7.30;;;19.30;99.90;;;;;;5114792;27;20489;-62
2021/07/21 04:38:59;;;;;;;9.50;8.63;;;19.30;99.90;;;;;;5114882;27;20468;-62
2021/07/21 04:41:26;;;;;;;10.00;8.67;;;19.30;99.90;;;;;;5115100;27;20953;-62
2021/07/21 04:43:55;;;;;;;13.33;8.97;;;19.30;99.90;;;;;;5114591;27;20497;-61
2021/07/21 04:46:24;;;;;;;10.23;8.80;;;19.40;99.90;;;;;;5115065;27;20787;-61
2021/07/21 04:48:52;;;;;;;10.87;9.43;;;19.40;99.90;;;;;;5114420;27;20553;-61
2021/07/21 04:51:23;;;;;;;10.03;8.63;;;19.40;99.90;;;;;;5114770;27;20850;-61
2021/07/21 04:53:55;;;;;;;9.13;8.17;;;19.50;99.90;;;;;;5114225;27;20582;-61
2021/07/21 04:56:22;;;;;;;9.27;8.27;;;19.50;99.90;;;;;;5114789;27;20464;-61
2021/07/21 04:58:49;;;;;;;11.30;8.10;;;19.50;99.90;;;;;;5114017;27;20469;-62
2021/07/21 05:01:17;;;;;;;10.67;8.63;;;19.50;99.90;;;;;;5114543;27;20494;-61
2021/07/21 05:03:45;;;;;;;9.43;8.10;;;19.50;99.90;;;;;;5114208;27;20544;-62
2021/07/21 05:06:12;;;;;;;9.80;8.23;;;19.50;99.90;;;;;;5114590;27;20461;-62
2021/07/21 05:08:41;;;;;;;9.60;8.67;;;19.60;99.90;;;;;;5114039;27;20483;-62
2021/07/21 05:11:08;;;;;;;10.93;8.87;;;19.50;99.90;;;;;;5114392;27;20469;-62
2021/07/21 05:13:40;;;;;;;10.60;8.27;;;19.60;99.90;;;;;;5113901;27;20475;-61
2021/07/21 05:16:07;;;;;;;10.43;9.00;;;19.60;99.90;;;;;;5114434;27;20476;-62
2021/07/21 05:18:34;;;;;;;10.33;8.83;;;19.60;99.90;;;;;;5113898;27;20468;-62
2021/07/21 05:21:04;;;;;;;10.03;9.13;;;19.70;99.90;;;;;;5114046;27;20950;-62
2021/07/21 05:23:31;;;;;;;8.60;7.33;;;19.70;99.90;;;;;;5114059;27;20464;-62
2021/07/21 05:25:58;;;;;;;9.53;7.07;;;19.70;99.90;;;;;;5113961;27;21602;-62
2021/07/21 05:28:25;;;;;;;9.77;8.20;;;19.70;99.90;;;;;;5114040;27;20472;-62
2021/07/21 05:30:53;;;;;;;9.40;8.43;;;19.80;99.90;;;;;;5113795;27;20472;-62
2021/07/21 05:33:20;;;;;;;9.93;8.93;;;19.80;99.90;;;;;;5114082;27;20464;-61
2021/07/21 05:35:47;;;;;;;13.17;7.87;;;19.90;99.90;;;;;;5113583;27;20950;-62
2021/07/21 05:38:16;;;;;;;12.20;9.43;;;19.90;99.90;;;;;;5114041;27;20480;-61
2021/07/21 05:40:43;;;;;;;8.80;7.87;;;20.00;99.90;;;;;;5113460;27;20472;-62
2021/07/21 05:43:10;;;;;;;10.60;8.93;;;20.00;99.90;;;;;;5113704;27;20461;-62
2021/07/21 05:45:37;;;;;;;9.63;8.13;;;20.10;99.90;;;;;;5113411;27;20472;-62
2021/07/21 05:48:05;;;;;;;9.73;8.73;;;20.10;99.90;;;;;;5113747;27;20829;-62
2021/07/21 05:50:32;;;;;;;9.10;8.30;;;20.20;99.90;;;;;;5113704;27;20533;-62
2021/07/21 05:52:59;;;;;;;10.40;8.40;;;20.20;99.90;;;;;;5113083;27;20460;-62
2021/07/21 05:55:27;;;;;;;10.23;8.80;;;20.30;99.90;;;;;;5113560;27;20533;-61
2021/07/21 05:57:54;;;;;;;10.40;9.07;;;20.30;99.90;;;;;;5113082;27;20600;-63
2021/07/21 06:00:21;;;;;;;8.23;7.40;;;20.40;99.90;;;;;;5113654;27;20452;-63
2021/07/21 06:02:48;;;;;;;8.60;7.33;;;20.50;99.90;;;;;;5112965;27;20835;-62
2021/07/21 06:05:15;;;;;;;9.77;8.30;;;20.50;99.90;;;;;;5113436;27;20525;-62
2021/07/21 06:07:42;;;;;;;9.37;7.93;;;20.60;99.90;;;;;;5113052;27;20477;-62
2021/07/21 06:10:10;;;;;;;7.93;7.13;;;20.70;99.90;;;;;;5113528;27;20468;-62
2021/07/21 06:12:38;;;;;;;10.83;8.80;;;20.80;99.90;;;;;;5113035;27;20468;-62
2021/07/21 06:15:07;;;;;;;10.83;8.77;;;20.80;99.90;;;;;;5113298;27;20518;-62
2021/07/21 06:17:35;;;;;;;10.00;8.87;;;20.90;99.90;;;;;;5113260;27;20457;-61
2021/07/21 06:20:02;;;;;;;8.13;7.40;;;21.10;99.90;;;;;;5113181;27;21052;-62
2021/07/21 06:22:33;;;;;;;10.00;8.33;;;21.10;99.90;;;;;;5113202;27;20970;-63
2021/07/21 06:25:00;;;;;;;9.60;8.60;;;21.20;99.90;;;;;;5112770;27;20748;-61
2021/07/21 06:27:27;;;;;;;7.77;6.63;;;21.30;99.90;;;;;;5113243;27;20461;-62
2021/07/21 06:29:55;;;;;;;8.70;7.30;;;21.40;99.90;;;;;;5112930;27;20495;-63
2021/07/21 06:32:22;;;;;;;7.90;7.00;;;21.60;99.60;;;;;;5113194;27;20852;-61
2021/07/21 06:34:49;;;;;;;8.40;7.60;;;21.70;99.40;;;;;;5112673;27;20460;-61
2021/07/21 06:37:16;;;;;;;8.90;8.00;;;21.80;99.20;;;;;;5113113;27;21038;-61
2021/07/21 06:39:43;;;;;;;10.07;8.30;;;21.90;98.80;;;;;;5112507;27;20472;-62
2021/07/21 06:42:10;;;;;;;7.60;6.80;;;22.00;98.10;;;;;;5113154;27;20526;-62
2021/07/21 06:44:37;;;;;;;8.63;7.07;;;22.10;98.00;;;;;;5113032;27;20460;-62
2021/07/21 06:47:05;;;;;;;8.33;7.37;;;22.10;97.80;;;;;;5112690;27;21562;-61
2021/07/21 06:49:32;;;;;;;11.50;7.13;;;22.20;97.10;;;;;;5113013;27;20469;-62
2021/07/21 06:51:59;;;;;;;6.87;6.20;;;22.30;96.90;;;;;;5112569;27;20464;-62
2021/07/21 06:54:26;;;;;;;6.67;6.17;;;22.40;96.90;;;;;;5112588;27;20465;-61
2021/07/21 06:56:53;;;;;;;8.40;6.57;;;22.50;96.60;;;;;;5114033;27;20536;-61
2021/07/21 06:59:19;;;;;;;7.63;6.53;;;22.60;96.30;;;;;;5116923;27;20464;-62
2021/07/21 07:01:46;;;;;;;7.37;6.70;;;22.70;96.30;;;;;;5116544;27;20525;-63
2021/07/21 07:04:15;;;;;;;6.57;5.73;;;22.80;95.70;;;;;;5116913;27;20467;-62
2021/07/21 07:06:42;;;;;;;8.70;7.40;;;22.90;95.20;;;;;;5116405;27;20461;-62
2021/07/21 07:09:08;;;;;;;11.10;7.70;;;23.10;95.60;;;;;;5116752;27;20958;-63
2021/07/21 07:11:35;;;;;;;7.90;7.07;;;23.30;94.90;;;;;;5116938;27;20864;-61
2021/07/21 07:14:03;;;;;;;11.20;7.67;;;23.60;94.90;;;;;;5116237;27;20464;-61
2021/07/21 07:16:30;;;;;;;9.30;7.30;;;23.80;94.70;;;;;;5116880;27;20869;-61
2021/07/21 07:18:57;;;;;;;8.33;7.53;;;24.00;94.40;;;;;;5116517;27;20525;-61
2021/07/21 07:21:26;;;;;;;8.93;7.30;;;24.20;94.10;;;;;;5116635;27;20965;-61
2021/07/21 07:23:53;;;;;;;9.37;8.40;;;24.20;94.00;;;;;;5116051;27;20490;-62
2021/07/21 07:26:20;;;;;;;9.30;8.30;;;24.20;93.90;;;;;;5116480;27;20460;-62
2021/07/21 07:28:47;;;;;;;7.90;6.40;;;24.20;93.90;;;;;;5116029;27;20553;-62
2021/07/21 07:31:14;;;;;;;7.67;6.90;;;24.20;94.00;;;;;;5116640;27;20468;-62
2021/07/21 07:33:41;;;;;;;7.97;7.27;;;24.20;93.90;;;;;;5116458;27;20781;-62
2021/07/21 07:36:08;;;;;;;7.23;6.53;;;24.20;93.90;;;;;;5115993;27;21275;-61
2021/07/21 07:38:36;;;;;;;7.67;6.87;;;24.20;93.90;;;;;;5116482;27;20535;-61
2021/07/21 07:41:03;;;;;;;7.97;7.17;;;24.20;93.90;;;;;;5115913;27;20464;-61
2021/07/21 07:43:31;;;;;;;8.30;7.47;;;24.20;93.70;;;;;;5116072;27;20456;-63
2021/07/21 07:45:58;;;;;;;9.20;8.20;;;24.20;93.60;;;;;;5115808;27;20965;-62
2021/07/21 07:48:26;;;;;;;9.80;8.07;;;24.30;93.70;;;;;;5115761;27;20468;-62
2021/07/21 07:50:53;;;;;;;8.30;7.60;;;24.30;93.50;;;;;;5115706;27;20525;-62
2021/07/21 07:53:20;;;;;;;8.83;8.03;;;24.40;93.70;;;;;;5115772;27;20541;-62
2021/07/21 07:55:48;;;;;;;9.80;8.80;;;24.30;93.80;;;;;;5115549;27;20856;-62
2021/07/21 07:58:15;;;;;;;9.07;8.27;;;24.40;93.80;;;;;;5115750;27;20473;-63
2021/07/21 08:00:43;;;;;;;11.80;8.70;;;24.40;93.60;;;;;;5116067;27;20472;-62
2021/07/21 08:03:10;;;;;;;10.00;9.00;;;24.40;93.40;;;;;;5115304;27;20521;-63
2021/07/21 08:05:37;;;;;;;11.57;7.27;;;24.40;93.40;;;;;;5115804;27;20457;-62
2021/07/21 08:08:05;;;;;;;9.10;8.10;;;24.30;93.60;;;;;;5114022;27;20464;-63
2021/07/21 08:10:32;;;;;;;10.33;9.53;;;24.30;93.70;;;;;;5115716;27;20464;-62
2021/07/21 08:13:01;;;;;;;9.23;8.43;;;24.30;93.70;;;;;;5115222;27;20521;-61
2021/07/21 08:15:28;;;;;;;9.10;7.77;;;24.30;93.30;;;;;;5115711;27;21042;-61
2021/07/21 08:17:55;;;;;;;8.87;8.17;;;24.30;93.30;;;;;;5115288;27;20472;-62
2021/07/21 08:20:22;;;;;;;8.43;7.73;;;24.30;93.40;;;;;;5115424;27;20488;-63
2021/07/21 08:22:49;;;;;;;8.30;7.60;;;24.30;93.20;;;;;;5114994;27;20469;-62
2021/07/21 08:25:19;;;;;;;8.80;7.90;;;24.40;93.20;;;;;;5115412;27;20950;-62
2021/07/21 08:27:46;;;;;;;7.77;7.10;;;24.40;92.60;;;;;;5115353;27;20476;-62
2021/07/21 08:30:14;;;;;;;8.03;7.23;;;24.30;92.60;;;;;;5114761;27;20938;-61
2021/07/21 08:32:42;;;;;;;7.80;7.20;;;24.30;92.50;;;;;;5115338;27;20521;-61
2021/07/21 08:35:10;;;;;;;7.00;6.43;;;24.30;92.40;;;;;;5115085;27;20563;-61
2021/07/21 08:37:37;;;;;;;10.63;8.50;;;24.30;92.70;;;;;;5115060;27;20508;-61
2021/07/21 08:40:06;;;;;;;10.50;9.40;;;24.20;92.60;;;;;;5114504;27;20962;-61
2021/07/21 08:42:33;;;;;;;10.40;9.50;;;24.20;92.90;;;;;;5115330;27;21101;-62
2021/07/21 08:45:01;;;;;;;14.57;8.97;;;24.20;93.00;;;;;;5114800;27;20521;-62
2021/07/21 08:47:29;;;;;;;7.80;7.00;;;24.10;93.00;;;;;;5114763;27;20526;-62
2021/07/21 08:49:57;;;;;;;9.73;7.50;;;24.10;92.90;;;;;;5114613;27;20530;-60
2021/07/21 08:52:25;;;;;;;7.43;6.53;;;24.10;92.60;;;;;;5115118;27;20460;-63
2021/07/21 08:54:58;;;;;;;7.40;6.70;;;24.10;92.30;;;;;;5114446;27;20845;-62
2021/07/21 08:57:28;;;;;;;7.13;6.53;;;24.10;91.80;;;;;;5114837;27;20479;-61
2021/07/21 08:59:55;;;;;;;7.80;7.10;;;24.10;92.20;;;;;;5114427;27;20590;-61
2021/07/21 09:02:23;;;;;;;6.93;6.23;;;24.10;92.40;;;;;;5114636;27;20506;-61
2021/07/21 09:04:51;;;;;;;7.13;6.50;;;24.20;92.50;;;;;;5114431;27;20464;-61
2021/07/21 09:07:18;;;;;;;7.70;6.73;;;24.20;92.20;;;;;;5114207;27;20471;-63
2021/07/21 09:09:45;;;;;;;9.93;8.93;;;24.20;92.20;;;;;;5114491;27;20472;-63
2021/07/21 09:12:13;;;;;;;7.07;6.47;;;24.20;92.30;;;;;;5114273;27;20961;-63
2021/07/21 09:14:40;;;;;;;5.63;5.17;;;24.20;92.30;;;;;;5114468;27;20470;-61
2021/07/21 09:17:10;;;;;;;5.30;4.80;;;24.20;92.40;;;;;;5113923;27;20954;-62
2021/07/21 09:19:39;;;;;;;6.80;6.20;;;24.30;91.90;;;;;;5114020;27;20517;-62
2021/07/21 09:22:20;;;;;;;5.53;5.07;;;24.30;91.80;;;;;;5113876;27;20522;-61
2021/07/21 09:25:12;;;;;;;5.60;5.10;;;24.30;91.80;;;;;;5114181;27;20464;-63
2021/07/21 09:27:39;;;;;;;5.60;5.03;;;24.30;91.80;;;;;;5114259;27;20452;-62
2021/07/21 09:30:07;;;;;;;6.20;5.70;;;24.30;91.50;;;;;;5114225;27;20471;-61
2021/07/21 09:32:51;;;;;;;6.43;5.93;;;24.30;91.40;;;;;;5114164;27;20464;-61
2021/07/21 09:35:18;;;;;;;5.87;5.27;;;24.40;91.30;;;;;;5114190;27;20535;-61
2021/07/21 09:37:46;;;;;;;5.93;5.43;;;24.40;90.80;;;;;;5113855;27;21019;-61
2021/07/21 09:40:14;;;;;;;5.60;5.10;;;24.50;90.30;;;;;;5113887;27;20476;-61
2021/07/21 09:42:41;;;;;;;5.63;5.13;;;24.50;90.00;;;;;;5113612;27;20468;-62
2021/07/21 09:45:09;;;;;;;4.70;3.80;;;24.60;90.00;;;;;;5113796;27;20525;-62
2021/07/21 09:47:39;;;;;;;3.90;3.60;;;24.60;89.70;;;;;;5113302;27;20999;-61
2021/07/21 09:50:14;;;;;;;4.73;4.07;;;24.60;89.40;;;;;;5113784;27;20471;-61
2021/07/21 09:52:50;;;;;;;4.60;4.20;;;24.60;88.20;;;;;;5113358;27;20479;-61
2021/07/21 09:55:19;;;;;;;3.87;3.57;;;24.70;87.10;;;;;;5113316;27;20468;-62
2021/07/21 09:58:02;;;;;;;4.40;3.93;;;24.70;86.10;;;;;;5113369;27;21034;-63
2021/07/21 10:00:30;;;;;;;4.60;4.30;;;24.80;86.50;;;;;;5113112;27;20464;-62
2021/07/21 10:03:16;;;;;;;4.33;4.00;;;24.80;85.70;;;;;;5113597;27;20561;-62
2021/07/21 10:06:02;;;;;;;4.27;3.97;;;24.90;83.20;;;;;;5113458;27;20449;-62
2021/07/21 10:08:33;;;;;;;3.33;3.07;;;24.90;81.40;;;;;;5112977;27;20460;-60
2021/07/21 10:11:16;;;;;;;5.17;4.77;;;24.90;80.10;;;;;;5113468;27;20469;-62
2021/07/21 10:13:43;;;;;;;3.90;3.60;;;25.00;79.30;;;;;;5112971;27;20942;-61
2021/07/21 10:16:10;;;;;;;3.30;3.00;;;24.90;79.40;;;;;;5113572;27;20521;-61
2021/07/21 10:18:37;;;;;;;4.07;3.73;;;25.00;79.00;;;;;;5112975;27;20661;-61
2021/07/21 10:21:04;;;;;;;4.07;3.47;;;25.00;79.90;;;;;;5113227;27;20954;-61
2021/07/21 10:23:32;;;;;;;4.10;3.70;;;25.00;79.30;;;;;;5112801;27;20837;-61
2021/07/21 10:25:59;;;;;;;4.20;3.60;;;25.00;79.40;;;;;;5113357;27;20517;-62
2021/07/21 10:28:26;;;;;;;3.80;3.50;;;25.10;79.50;;;;;;5112804;27;20852;-62
2021/07/21 10:30:54;;;;;;;3.93;3.53;;;25.10;79.70;;;;;;5112413;27;20513;-62
2021/07/21 10:33:21;;;;;;;3.60;3.30;;;25.20;79.10;;;;;;5112806;27;20517;-61
2021/07/21 10:35:48;;;;;;;3.10;2.80;;;25.30;80.20;;;;;;5113226;27;20465;-62
2021/07/21 10:38:15;;;;;;;3.80;3.50;;;25.30;79.50;;;;;;5113054;27;20521;-62
2021/07/21 10:40:44;;;;;;;3.27;2.97;;;25.30;79.60;;;;;;5112751;27;20453;-62
2021/07/21 10:43:12;;;;;;;4.20;3.80;;;25.40;78.80;;;;;;5112992;27;20468;-62
2021/07/21 10:45:42;;;;;;;4.20;3.90;;;25.40;78.20;;;;;;5112775;27;20471;-62
2021/07/21 10:48:17;;;;;;;4.67;3.70;;;25.40;78.80;;;;;;5112800;27;20465;-62
2021/07/21 10:51:00;;;;;;;5.47;3.70;;;25.40;78.60;;;;;;5112627;27;20506;-62
2021/07/21 10:59:40;;;;;;;3.00;2.80;;;25.30;78.30;;;;;;5099678;27;20482;-62
2021/07/21 11:02:08;;;;;;;4.63;4.20;;;25.20;77.70;;;;;;5112478;27;20522;-62
2021/07/21 11:04:44;;;;;;;4.00;3.70;;;25.20;77.60;;;;;;5112778;27;20457;-62
2021/07/21 11:07:12;;;;;;;6.83;5.07;;;25.20;77.70;;;;;;5112397;27;20521;-61
2021/07/21 11:09:42;;;;;;;4.47;4.13;;;25.20;77.90;;;;;;5112804;27;20529;-62
2021/07/21 11:12:11;;;;;;;3.17;2.97;;;25.20;78.40;;;;;;5112539;27;20514;-62
2021/07/21 11:14:38;;;;;;;5.03;3.20;;;25.20;76.70;;;;;;5112631;27;20456;-62
2021/07/21 11:17:13;;;;;;;4.03;3.73;;;25.20;77.80;;;;;;5112647;27;20510;-61
2021/07/21 11:19:47;;;;;;;3.93;3.30;;;25.30;77.80;;;;;;5112916;27;20856;-60
2021/07/21 11:22:26;;;;;;;4.50;4.07;;;25.30;78.10;;;;;;5112146;27;20464;-62
2021/07/21 11:25:14;;;;;;;5.53;4.00;;;25.30;78.00;;;;;;5112511;27;20973;-61
2021/07/21 11:27:44;;;;;;;3.53;3.23;;;25.30;76.50;;;;;;5113020;27;20457;-60
2021/07/21 11:30:34;;;;;;;3.40;3.13;;;25.30;75.40;;;;;;5112549;27;20471;-62
2021/07/21 11:33:35;;;;;;;5.23;4.83;;;25.30;75.70;;;;;;5112277;27;20460;-62
2021/07/21 11:36:03;;;;;;;5.50;5.07;;;25.30;76.90;;;;;;5112325;27;20547;-61
2021/07/21 11:38:47;;;;;;;8.53;7.07;;;25.30;77.80;;;;;;5112489;27;20739;-62
2021/07/21 11:41:50;;;;;;;5.10;4.70;;;25.20;78.60;;;;;;5112431;27;20448;-62
2021/07/21 11:44:28;;;;;;;4.67;4.10;;;25.30;79.10;;;;;;5110731;27;20476;-62
2021/07/21 11:46:57;;;;;;;4.00;3.57;;;25.20;79.50;;;;;;5115803;27;20611;-62
2021/07/21 11:49:26;;;;;;;4.40;4.00;;;25.20;80.00;;;;;;5116188;27;20525;-62
2021/07/21 11:51:55;;;;;;;5.40;3.97;;;25.20;80.00;;;;;;5115661;27;20508;-59
2021/07/21 11:54:23;;;;;;;3.87;3.57;;;25.20;79.40;;;;;;5115802;27;20468;-61
2021/07/21 11:56:50;;;;;;;3.97;3.57;;;25.10;78.80;;;;;;5116247;27;20464;-62
2021/07/21 11:59:26;;;;;;;3.50;3.20;;;25.10;79.20;;;;;;5115438;27;20556;-62
2021/07/21 12:02:04;;;;;;;3.63;3.33;;;25.10;78.40;;;;;;5115893;27;20561;-62
2021/07/21 12:04:31;;;;;;;3.50;3.20;;;25.00;78.90;;;;;;5116174;27;20461;-61
2021/07/21 12:06:58;;;;;;;3.83;3.53;;;25.00;79.40;;;;;;5115497;27;20464;-62
2021/07/21 12:09:28;;;;;;;3.77;3.47;;;25.00;80.10;;;;;;5115744;27;20816;-62
2021/07/21 12:11:56;;;;;;;4.20;3.80;;;25.00;80.00;;;;;;5115339;27;20502;-62
2021/07/21 12:14:24;;;;;;;6.10;5.60;;;25.00;80.20;;;;;;5115612;27;20460;-62
2021/07/21 12:16:53;;;;;;;5.20;4.70;;;25.00;80.50;;;;;;5115210;27;20540;-62
2021/07/21 12:19:26;;;;;;;3.60;3.30;;;25.00;80.60;;;;;;5115364;27;20552;-63
2021/07/21 12:22:02;;;;;;;3.53;3.23;;;25.00;80.60;;;;;;5115307;27;20548;-62
2021/07/21 12:24:33;;;;;;;4.80;3.13;;;25.00;81.00;;;;;;5115568;27;20969;-62
2021/07/21 12:27:00;;;;;;;2.90;2.70;;;24.90;81.30;;;;;;5115222;27;20556;-62
2021/07/21 12:29:27;;;;;;;4.47;3.70;;;24.90;81.30;;;;;;5115331;27;20468;-62
2021/07/21 12:32:07;;;;;;;5.23;3.00;;;24.90;81.50;;;;;;5115042;27;20568;-62
2021/07/21 12:34:35;;;;;;;4.47;4.07;;;24.80;81.30;;;;;;5115281;27;20492;-61
2021/07/21 12:37:02;;;;;;;4.17;3.70;;;24.80;81.40;;;;;;5115014;27;21305;-62
2021/07/21 12:39:32;;;;;;;4.57;4.17;;;24.80;81.30;;;;;;5115140;27;20521;-62
2021/07/21 12:42:09;;;;;;;5.20;4.70;;;24.80;81.20;;;;;;5114744;27;20526;-62
2021/07/21 12:44:43;;;;;;;4.67;3.73;;;24.80;81.40;;;;;;5114873;27;20472;-62
2021/07/21 12:47:13;;;;;;;4.93;4.33;;;24.80;80.90;;;;;;5114784;27;20463;-61
2021/07/21 12:49:43;;;;;;;4.67;4.27;;;24.80;81.30;;;;;;5115022;27;20472;-61
2021/07/21 12:52:16;;;;;;;5.10;4.70;;;24.80;81.10;;;;;;5114325;27;20961;-62
2021/07/21 12:54:48;;;;;;;5.33;4.83;;;24.80;81.50;;;;;;5113927;27;20953;-62
2021/07/21 12:57:15;;;;;;;3.90;3.57;;;24.80;81.70;;;;;;5114579;27;20518;-62
2021/07/21 12:59:42;;;;;;;5.10;3.70;;;24.80;83.00;;;;;;5114785;27;20783;-62
2021/07/21 13:02:11;;;;;;;3.83;3.53;;;24.80;84.20;;;;;;5114266;27;20965;-62
2021/07/21 13:04:39;;;;;;;4.07;3.47;;;24.80;84.90;;;;;;5114578;27;20965;-63